SBRB/RBR METAR and TAF weather

Enter ICAO airport designator
Station Type Date Time Source
SBRB METAR 2021/07/29 02:00 UTC NOAA

SBRB 290200Z 14007KT 9999 BKN040 18/12 Q1020


Station Type Date Time Source
SBRB Decoded METAR 2021/07/29 02:00 UTC NOAA

Rio Branco, Brazil (SBRB) 10-00S 067-48W 143M
Jul 28, 2021 - 10:00 PM EDT / 2021.07.29 0200 UTC
Wind: from the SE (140 degrees) at 8 MPH (7 KT):0
Visibility: greater than 7 mile(s):0
Sky conditions: mostly cloudy
Temperature: 64 F (18 C)
Dew Point: 53 F (12 C)
Relative Humidity: 67%
Pressure (altimeter): 30.12 in. Hg (1020 hPa)
ob: SBRB 290200Z 14007KT 9999 BKN040 18/12 Q1020
cycle: 2

Station Type Date Time Source
SBRB TAF 2021/07/29 06:12 UTC NOAA

TAF SBRB 290209Z 2906/2918 15008KT 9999 SCT040 TN15/2911Z TX24/2918Z
RMK PHI

Example: see airport list